sensor_id;sensor_type;location;lat;lon;timestamp;P1;durP1;ratioP1;P2;durP2;ratioP2
83103;SDS011;72975;48.134;11.630;2024-01-30T00:09:24;10.18;;;4.40;;
83103;SDS011;72975;48.134;11.630;2024-01-30T00:13:33;9.10;;;3.95;;
83103;SDS011;72975;48.134;11.630;2024-01-30T00:17:16;7.55;;;4.10;;
83103;SDS011;72975;48.134;11.630;2024-01-30T00:21:04;8.82;;;4.65;;
83103;SDS011;72975;48.134;11.630;2024-01-30T00:28:37;8.98;;;4.38;;
83103;SDS011;72975;48.134;11.630;2024-01-30T00:31:09;6.57;;;3.50;;
83103;SDS011;72975;48.134;11.630;2024-01-30T00:34:31;8.13;;;3.83;;
83103;SDS011;72975;48.134;11.630;2024-01-30T00:37:43;11.00;;;4.57;;
83103;SDS011;72975;48.134;11.630;2024-01-30T00:40:42;8.90;;;4.30;;
83103;SDS011;72975;48.134;11.630;2024-01-30T00:43:18;11.32;;;5.35;;
83103;SDS011;72975;48.134;11.630;2024-01-30T00:46:06;9.73;;;4.60;;
83103;SDS011;72975;48.134;11.630;2024-01-30T00:49:10;9.88;;;4.60;;
83103;SDS011;72975;48.134;11.630;2024-01-30T00:51:57;6.60;;;3.95;;
83103;SDS011;72975;48.134;11.630;2024-01-30T00:55:19;10.60;;;4.40;;
83103;SDS011;72975;48.134;11.630;2024-01-30T00:58:29;8.30;;;4.10;;
83103;SDS011;72975;48.134;11.630;2024-01-30T01:04:05;5.95;;;3.95;;
83103;SDS011;72975;48.134;11.630;2024-01-30T01:07:08;6.63;;;3.15;;
83103;SDS011;72975;48.134;11.630;2024-01-30T01:22:21;6.85;;;3.00;;
83103;SDS011;72975;48.134;11.630;2024-01-30T01:29:54;8.13;;;3.20;;
83103;SDS011;72975;48.134;11.630;2024-01-30T01:33:44;8.70;;;3.72;;
83103;SDS011;72975;48.134;11.630;2024-01-30T01:37:15;6.55;;;3.33;;
83103;SDS011;72975;48.134;11.630;2024-01-30T01:43:38;6.70;;;3.47;;
83103;SDS011;72975;48.134;11.630;2024-01-30T01:47:11;7.50;;;3.92;;
83103;SDS011;72975;48.134;11.630;2024-01-30T01:50:33;7.43;;;3.70;;
83103;SDS011;72975;48.134;11.630;2024-01-30T01:53:35;7.50;;;3.58;;
83103;SDS011;72975;48.134;11.630;2024-01-30T01:57:17;5.32;;;3.22;;
83103;SDS011;72975;48.134;11.630;2024-01-30T02:00:05;5.93;;;3.20;;
83103;SDS011;72975;48.134;11.630;2024-01-30T02:02:53;7.95;;;3.72;;
83103;SDS011;72975;48.134;11.630;2024-01-30T02:05:56;7.30;;;4.38;;
83103;SDS011;72975;48.134;11.630;2024-01-30T02:08:54;6.68;;;3.63;;
83103;SDS011;72975;48.134;11.630;2024-01-30T02:12:35;8.32;;;3.42;;
83103;SDS011;72975;48.134;11.630;2024-01-30T02:15:36;7.88;;;4.22;;
83103;SDS011;72975;48.134;11.630;2024-01-30T02:26:08;9.68;;;4.07;;
83103;SDS011;72975;48.134;11.630;2024-01-30T02:29:18;8.93;;;4.30;;
83103;SDS011;72975;48.134;11.630;2024-01-30T02:32:25;8.32;;;3.58;;
83103;SDS011;72975;48.134;11.630;2024-01-30T02:39:20;8.20;;;3.80;;
83103;SDS011;72975;48.134;11.630;2024-01-30T02:42:10;7.30;;;3.35;;
83103;SDS011;72975;48.134;11.630;2024-01-30T02:47:53;6.28;;;3.78;;
83103;SDS011;72975;48.134;11.630;2024-01-30T02:51:05;7.20;;;3.80;;
83103;SDS011;72975;48.134;11.630;2024-01-30T02:54:36;6.60;;;3.30;;
83103;SDS011;72975;48.134;11.630;2024-01-30T02:57:24;8.10;;;3.95;;
83103;SDS011;72975;48.134;11.630;2024-01-30T03:00:21;6.25;;;3.42;;
83103;SDS011;72975;48.134;11.630;2024-01-30T03:03:14;7.93;;;3.88;;
83103;SDS011;72975;48.134;11.630;2024-01-30T03:05:57;6.55;;;2.92;;
83103;SDS011;72975;48.134;11.630;2024-01-30T03:13:06;5.53;;;3.03;;
83103;SDS011;72975;48.134;11.630;2024-01-30T03:15:54;6.18;;;2.95;;
83103;SDS011;72975;48.134;11.630;2024-01-30T03:19:06;6.22;;;3.38;;
83103;SDS011;72975;48.134;11.630;2024-01-30T03:21:59;6.80;;;2.70;;
83103;SDS011;72975;48.134;11.630;2024-01-30T03:24:46;5.90;;;3.17;;
83103;SDS011;72975;48.134;11.630;2024-01-30T03:27:53;4.22;;;2.50;;
83103;SDS011;72975;48.134;11.630;2024-01-30T03:30:41;5.10;;;2.50;;
83103;SDS011;72975;48.134;11.630;2024-01-30T03:33:34;5.60;;;2.50;;
83103;SDS011;72975;48.134;11.630;2024-01-30T03:36:24;4.97;;;2.40;;
83103;SDS011;72975;48.134;11.630;2024-01-30T03:39:39;5.00;;;2.42;;
83103;SDS011;72975;48.134;11.630;2024-01-30T03:46:29;3.53;;;1.83;;
83103;SDS011;72975;48.134;11.630;2024-01-30T03:50:01;7.18;;;2.80;;
83103;SDS011;72975;48.134;11.630;2024-01-30T03:53:22;4.80;;;2.50;;
83103;SDS011;72975;48.134;11.630;2024-01-30T03:56:52;5.25;;;2.70;;
83103;SDS011;72975;48.134;11.630;2024-01-30T03:59:57;5.28;;;2.90;;
83103;SDS011;72975;48.134;11.630;2024-01-30T04:03:44;5.95;;;2.92;;
83103;SDS011;72975;48.134;11.630;2024-01-30T04:07:11;4.65;;;2.55;;
83103;SDS011;72975;48.134;11.630;2024-01-30T04:09:50;5.32;;;2.75;;
83103;SDS011;72975;48.134;11.630;2024-01-30T04:12:31;4.35;;;2.30;;
83103;SDS011;72975;48.134;11.630;2024-01-30T04:15:12;5.15;;;2.47;;
83103;SDS011;72975;48.134;11.630;2024-01-30T04:17:59;5.30;;;2.42;;
83103;SDS011;72975;48.134;11.630;2024-01-30T04:20:27;4.55;;;2.05;;
83103;SDS011;72975;48.134;11.630;2024-01-30T04:23:12;4.55;;;1.98;;
83103;SDS011;72975;48.134;11.630;2024-01-30T04:26:04;5.38;;;1.98;;
83103;SDS011;72975;48.134;11.630;2024-01-30T04:29:27;4.40;;;2.08;;
83103;SDS011;72975;48.134;11.630;2024-01-30T04:32:26;4.57;;;2.08;;
83103;SDS011;72975;48.134;11.630;2024-01-30T04:38:04;3.08;;;1.80;;
83103;SDS011;72975;48.134;11.630;2024-01-30T04:41:01;3.80;;;1.88;;
83103;SDS011;72975;48.134;11.630;2024-01-30T04:47:19;4.88;;;1.90;;
83103;SDS011;72975;48.134;11.630;2024-01-30T04:50:01;4.30;;;2.10;;
83103;SDS011;72975;48.134;11.630;2024-01-30T04:52:57;4.00;;;1.77;;
83103;SDS011;72975;48.134;11.630;2024-01-30T04:56:33;4.28;;;1.95;;
83103;SDS011;72975;48.134;11.630;2024-01-30T05:02:57;3.42;;;1.58;;
83103;SDS011;72975;48.134;11.630;2024-01-30T05:06:03;3.35;;;1.77;;
83103;SDS011;72975;48.134;11.630;2024-01-30T05:12:09;3.58;;;2.20;;
83103;SDS011;72975;48.134;11.630;2024-01-30T05:15:41;5.05;;;2.28;;
83103;SDS011;72975;48.134;11.630;2024-01-30T05:23:03;3.63;;;1.70;;
83103;SDS011;72975;48.134;11.630;2024-01-30T05:25:44;3.65;;;1.77;;
83103;SDS011;72975;48.134;11.630;2024-01-30T05:28:45;3.78;;;1.60;;
83103;SDS011;72975;48.134;11.630;2024-01-30T05:43:19;3.58;;;1.88;;
83103;SDS011;72975;48.134;11.630;2024-01-30T05:46:26;3.95;;;1.83;;
83103;SDS011;72975;48.134;11.630;2024-01-30T05:49:46;4.22;;;1.88;;
83103;SDS011;72975;48.134;11.630;2024-01-30T05:53:06;4.60;;;1.88;;
83103;SDS011;72975;48.134;11.630;2024-01-30T05:55:44;4.05;;;2.00;;
83103;SDS011;72975;48.134;11.630;2024-01-30T05:58:35;5.95;;;2.25;;
83103;SDS011;72975;48.134;11.630;2024-01-30T06:01:23;3.22;;;1.67;;
83103;SDS011;72975;48.134;11.630;2024-01-30T06:04:05;3.38;;;1.60;;
83103;SDS011;72975;48.134;11.630;2024-01-30T06:06:54;3.95;;;1.92;;
83103;SDS011;72975;48.134;11.630;2024-01-30T06:09:32;3.28;;;1.77;;
83103;SDS011;72975;48.134;11.630;2024-01-30T06:12:16;2.78;;;1.60;;
83103;SDS011;72975;48.134;11.630;2024-01-30T06:15:20;2.35;;;1.30;;
83103;SDS011;72975;48.134;11.630;2024-01-30T06:18:00;3.65;;;1.80;;
83103;SDS011;72975;48.134;11.630;2024-01-30T06:20:39;3.95;;;1.90;;
83103;SDS011;72975;48.134;11.630;2024-01-30T06:23:48;5.18;;;2.28;;
83103;SDS011;72975;48.134;11.630;2024-01-30T06:26:49;4.63;;;2.13;;
83103;SDS011;72975;48.134;11.630;2024-01-30T06:29:34;4.68;;;1.90;;
83103;SDS011;72975;48.134;11.630;2024-01-30T06:32:46;8.27;;;2.15;;
83103;SDS011;72975;48.134;11.630;2024-01-30T06:35:42;4.28;;;1.70;;
83103;SDS011;72975;48.134;11.630;2024-01-30T06:38:25;4.05;;;1.85;;
83103;SDS011;72975;48.134;11.630;2024-01-30T06:40:58;3.88;;;1.73;;
83103;SDS011;72975;48.134;11.630;2024-01-30T06:43:36;4.97;;;1.75;;
83103;SDS011;72975;48.134;11.630;2024-01-30T06:46:47;3.92;;;1.90;;
83103;SDS011;72975;48.134;11.630;2024-01-30T06:49:37;4.22;;;1.60;;
83103;SDS011;72975;48.134;11.630;2024-01-30T06:52:46;4.75;;;1.70;;
83103;SDS011;72975;48.134;11.630;2024-01-30T06:55:31;3.58;;;2.03;;
83103;SDS011;72975;48.134;11.630;2024-01-30T06:58:11;3.60;;;1.80;;
83103;SDS011;72975;48.134;11.630;2024-01-30T07:01:11;6.25;;;1.92;;
83103;SDS011;72975;48.134;11.630;2024-01-30T07:04:05;6.03;;;1.92;;
83103;SDS011;72975;48.134;11.630;2024-01-30T07:06:47;3.72;;;1.77;;
83103;SDS011;72975;48.134;11.630;2024-01-30T07:09:34;4.15;;;1.63;;
83103;SDS011;72975;48.134;11.630;2024-01-30T07:12:10;4.22;;;2.08;;
83103;SDS011;72975;48.134;11.630;2024-01-30T07:15:01;3.53;;;1.77;;
83103;SDS011;72975;48.134;11.630;2024-01-30T07:17:30;2.90;;;1.48;;
83103;SDS011;72975;48.134;11.630;2024-01-30T07:19:57;5.78;;;2.00;;
83103;SDS011;72975;48.134;11.630;2024-01-30T07:22:25;4.57;;;2.15;;
83103;SDS011;72975;48.134;11.630;2024-01-30T07:24:52;3.55;;;1.67;;
83103;SDS011;72975;48.134;11.630;2024-01-30T07:27:22;4.55;;;1.92;;
83103;SDS011;72975;48.134;11.630;2024-01-30T07:29:54;4.40;;;1.98;;
83103;SDS011;72975;48.134;11.630;2024-01-30T07:32:25;4.40;;;2.33;;
83103;SDS011;72975;48.134;11.630;2024-01-30T07:34:55;3.45;;;2.00;;
83103;SDS011;72975;48.134;11.630;2024-01-30T07:37:36;7.15;;;2.08;;
83103;SDS011;72975;48.134;11.630;2024-01-30T07:40:10;4.97;;;2.33;;
83103;SDS011;72975;48.134;11.630;2024-01-30T07:42:38;4.57;;;2.38;;
83103;SDS011;72975;48.134;11.630;2024-01-30T07:45:08;5.53;;;2.20;;
83103;SDS011;72975;48.134;11.630;2024-01-30T07:47:36;5.75;;;2.17;;
83103;SDS011;72975;48.134;11.630;2024-01-30T07:50:04;3.80;;;2.35;;
83103;SDS011;72975;48.134;11.630;2024-01-30T07:55:41;3.95;;;2.28;;
83103;SDS011;72975;48.134;11.630;2024-01-30T07:58:22;4.50;;;2.20;;
83103;SDS011;72975;48.134;11.630;2024-01-30T08:03:30;8.30;;;2.60;;
83103;SDS011;72975;48.134;11.630;2024-01-30T08:06:09;7.38;;;3.35;;
83103;SDS011;72975;48.134;11.630;2024-01-30T08:08:57;4.68;;;2.30;;
83103;SDS011;72975;48.134;11.630;2024-01-30T08:12:15;5.95;;;2.33;;
83103;SDS011;72975;48.134;11.630;2024-01-30T08:14:55;6.55;;;3.17;;
83103;SDS011;72975;48.134;11.630;2024-01-30T08:17:25;6.43;;;3.22;;
83103;SDS011;72975;48.134;11.630;2024-01-30T08:20:15;4.32;;;1.98;;
83103;SDS011;72975;48.134;11.630;2024-01-30T08:22:53;5.93;;;2.35;;
83103;SDS011;72975;48.134;11.630;2024-01-30T08:25:37;6.32;;;2.53;;
83103;SDS011;72975;48.134;11.630;2024-01-30T08:32:17;5.95;;;2.58;;
83103;SDS011;72975;48.134;11.630;2024-01-30T08:34:44;6.80;;;3.20;;
83103;SDS011;72975;48.134;11.630;2024-01-30T09:02:27;6.50;;;3.17;;
83103;SDS011;72975;48.134;11.630;2024-01-30T09:30:02;8.27;;;3.03;;
83103;SDS011;72975;48.134;11.630;2024-01-30T09:33:07;11.27;;;3.70;;
83103;SDS011;72975;48.134;11.630;2024-01-30T09:35:48;12.27;;;4.38;;
83103;SDS011;72975;48.134;11.630;2024-01-30T09:38:49;9.82;;;3.42;;
83103;SDS011;72975;48.134;11.630;2024-01-30T09:44:41;10.13;;;5.03;;
83103;SDS011;72975;48.134;11.630;2024-01-30T09:47:18;10.32;;;4.60;;
83103;SDS011;72975;48.134;11.630;2024-01-30T09:50:09;12.02;;;3.92;;
83103;SDS011;72975;48.134;11.630;2024-01-30T09:53:02;13.57;;;4.30;;
83103;SDS011;72975;48.134;11.630;2024-01-30T09:56:12;9.90;;;3.85;;
83103;SDS011;72975;48.134;11.630;2024-01-30T09:58:43;12.88;;;4.60;;
83103;SDS011;72975;48.134;11.630;2024-01-30T10:01:26;13.35;;;4.00;;
83103;SDS011;72975;48.134;11.630;2024-01-30T10:04:05;14.10;;;3.65;;
83103;SDS011;72975;48.134;11.630;2024-01-30T10:06:35;12.70;;;3.42;;
83103;SDS011;72975;48.134;11.630;2024-01-30T10:09:03;11.23;;;3.90;;
83103;SDS011;72975;48.134;11.630;2024-01-30T10:11:31;10.40;;;3.67;;
83103;SDS011;72975;48.134;11.630;2024-01-30T10:14:07;11.55;;;3.65;;
83103;SDS011;72975;48.134;11.630;2024-01-30T10:16:36;11.75;;;3.58;;
83103;SDS011;72975;48.134;11.630;2024-01-30T10:19:04;9.80;;;3.33;;
83103;SDS011;72975;48.134;11.630;2024-01-30T10:21:38;12.07;;;3.75;;
83103;SDS011;72975;48.134;11.630;2024-01-30T10:24:06;12.15;;;4.07;;
83103;SDS011;72975;48.134;11.630;2024-01-30T10:26:34;11.27;;;3.58;;
83103;SDS011;72975;48.134;11.630;2024-01-30T10:29:09;12.48;;;3.88;;
83103;SDS011;72975;48.134;11.630;2024-01-30T10:31:37;14.95;;;4.35;;
83103;SDS011;72975;48.134;11.630;2024-01-30T10:34:06;12.85;;;4.38;;
83103;SDS011;72975;48.134;11.630;2024-01-30T10:37:05;15.93;;;3.55;;
83103;SDS011;72975;48.134;11.630;2024-01-30T10:39:53;15.07;;;3.70;;
83103;SDS011;72975;48.134;11.630;2024-01-30T10:47:53;9.60;;;3.28;;
83103;SDS011;72975;48.134;11.630;2024-01-30T10:50:30;12.90;;;3.35;;
83103;SDS011;72975;48.134;11.630;2024-01-30T10:53:21;13.55;;;4.35;;
83103;SDS011;72975;48.134;11.630;2024-01-30T10:56:35;9.73;;;3.20;;
83103;SDS011;72975;48.134;11.630;2024-01-30T10:59:11;10.80;;;3.80;;
83103;SDS011;72975;48.134;11.630;2024-01-30T11:05:23;9.60;;;3.28;;
83103;SDS011;72975;48.134;11.630;2024-01-30T11:08:13;11.13;;;3.42;;
83103;SDS011;72975;48.134;11.630;2024-01-30T11:11:14;12.43;;;5.05;;
83103;SDS011;72975;48.134;11.630;2024-01-30T11:14:27;19.98;;;7.68;;
83103;SDS011;72975;48.134;11.630;2024-01-30T11:17:13;18.40;;;5.43;;
83103;SDS011;72975;48.134;11.630;2024-01-30T11:20:19;9.88;;;3.70;;
83103;SDS011;72975;48.134;11.630;2024-01-30T11:23:07;9.85;;;3.08;;
83103;SDS011;72975;48.134;11.630;2024-01-30T11:26:00;10.35;;;3.45;;
83103;SDS011;72975;48.134;11.630;2024-01-30T11:28:32;9.18;;;3.08;;
83103;SDS011;72975;48.134;11.630;2024-01-30T11:31:06;7.10;;;2.97;;
83103;SDS011;72975;48.134;11.630;2024-01-30T11:33:38;6.88;;;2.92;;
83103;SDS011;72975;48.134;11.630;2024-01-30T11:36:25;6.43;;;2.90;;
83103;SDS011;72975;48.134;11.630;2024-01-30T11:41:47;6.63;;;3.13;;
83103;SDS011;72975;48.134;11.630;2024-01-30T11:44:19;9.77;;;2.60;;
83103;SDS011;72975;48.134;11.630;2024-01-30T11:46:58;10.90;;;3.60;;
83103;SDS011;72975;48.134;11.630;2024-01-30T11:49:54;6.97;;;3.40;;
83103;SDS011;72975;48.134;11.630;2024-01-30T11:52:47;9.63;;;3.33;;
83103;SDS011;72975;48.134;11.630;2024-01-30T11:55:21;27.88;;;5.22;;
83103;SDS011;72975;48.134;11.630;2024-01-30T11:58:05;22.08;;;5.28;;
83103;SDS011;72975;48.134;11.630;2024-01-30T12:00:35;12.50;;;3.72;;
83103;SDS011;72975;48.134;11.630;2024-01-30T12:03:03;16.98;;;5.45;;
83103;SDS011;72975;48.134;11.630;2024-01-30T12:05:36;10.73;;;3.30;;
83103;SDS011;72975;48.134;11.630;2024-01-30T12:08:14;11.75;;;3.25;;
83103;SDS011;72975;48.134;11.630;2024-01-30T12:10:47;14.93;;;4.07;;
83103;SDS011;72975;48.134;11.630;2024-01-30T12:13:39;21.17;;;4.53;;
83103;SDS011;72975;48.134;11.630;2024-01-30T12:16:27;13.68;;;3.20;;
83103;SDS011;72975;48.134;11.630;2024-01-30T12:19:04;7.15;;;2.45;;
83103;SDS011;72975;48.134;11.630;2024-01-30T12:21:53;7.18;;;2.53;;
83103;SDS011;72975;48.134;11.630;2024-01-30T12:24:23;15.05;;;3.10;;
83103;SDS011;72975;48.134;11.630;2024-01-30T12:26:57;9.40;;;3.90;;
83103;SDS011;72975;48.134;11.630;2024-01-30T12:29:31;10.10;;;3.22;;
83103;SDS011;72975;48.134;11.630;2024-01-30T12:32:16;7.15;;;2.83;;
83103;SDS011;72975;48.134;11.630;2024-01-30T12:35:10;9.85;;;2.92;;
83103;SDS011;72975;48.134;11.630;2024-01-30T12:37:50;14.20;;;3.53;;
83103;SDS011;72975;48.134;11.630;2024-01-30T12:40:27;10.77;;;2.92;;
83103;SDS011;72975;48.134;11.630;2024-01-30T12:42:59;4.07;;;1.90;;
83103;SDS011;72975;48.134;11.630;2024-01-30T12:45:57;9.70;;;2.53;;
83103;SDS011;72975;48.134;11.630;2024-01-30T12:48:43;6.18;;;2.30;;
83103;SDS011;72975;48.134;11.630;2024-01-30T12:51:21;4.97;;;2.20;;
83103;SDS011;72975;48.134;11.630;2024-01-30T12:53:56;7.28;;;2.15;;
83103;SDS011;72975;48.134;11.630;2024-01-30T12:56:30;14.88;;;2.75;;
83103;SDS011;72975;48.134;11.630;2024-01-30T12:59:01;13.80;;;2.63;;
83103;SDS011;72975;48.134;11.630;2024-01-30T13:01:29;4.85;;;2.08;;
83103;SDS011;72975;48.134;11.630;2024-01-30T13:04:03;5.80;;;2.30;;
83103;SDS011;72975;48.134;11.630;2024-01-30T13:06:37;7.93;;;2.20;;
83103;SDS011;72975;48.134;11.630;2024-01-30T13:09:05;9.20;;;2.30;;
83103;SDS011;72975;48.134;11.630;2024-01-30T13:11:32;10.77;;;2.67;;
83103;SDS011;72975;48.134;11.630;2024-01-30T13:14:01;12.27;;;3.60;;
83103;SDS011;72975;48.134;11.630;2024-01-30T13:16:32;11.35;;;2.50;;
83103;SDS011;72975;48.134;11.630;2024-01-30T13:19:04;6.40;;;2.28;;
83103;SDS011;72975;48.134;11.630;2024-01-30T13:21:33;5.85;;;2.38;;
83103;SDS011;72975;48.134;11.630;2024-01-30T13:24:00;9.98;;;2.80;;
83103;SDS011;72975;48.134;11.630;2024-01-30T13:26:28;9.80;;;2.38;;
83103;SDS011;72975;48.134;11.630;2024-01-30T13:28:57;12.07;;;2.78;;
83103;SDS011;72975;48.134;11.630;2024-01-30T13:31:27;6.90;;;2.67;;
83103;SDS011;72975;48.134;11.630;2024-01-30T13:33:56;8.00;;;2.88;;
83103;SDS011;72975;48.134;11.630;2024-01-30T13:36:26;12.82;;;3.20;;
83103;SDS011;72975;48.134;11.630;2024-01-30T13:39:06;9.77;;;3.88;;
83103;SDS011;72975;48.134;11.630;2024-01-30T13:41:36;12.77;;;5.35;;
83103;SDS011;72975;48.134;11.630;2024-01-30T13:44:04;10.00;;;4.32;;
83103;SDS011;72975;48.134;11.630;2024-01-30T13:46:31;13.93;;;4.28;;
83103;SDS011;72975;48.134;11.630;2024-01-30T13:49:02;9.23;;;4.28;;
83103;SDS011;72975;48.134;11.630;2024-01-30T13:51:32;11.23;;;4.03;;
83103;SDS011;72975;48.134;11.630;2024-01-30T13:54:16;15.30;;;4.15;;
83103;SDS011;72975;48.134;11.630;2024-01-30T13:57:01;10.02;;;3.53;;
83103;SDS011;72975;48.134;11.630;2024-01-30T13:59:42;9.13;;;3.65;;
83103;SDS011;72975;48.134;11.630;2024-01-30T14:02:12;9.27;;;3.63;;
83103;SDS011;72975;48.134;11.630;2024-01-30T14:04:43;12.30;;;3.88;;
83103;SDS011;72975;48.134;11.630;2024-01-30T14:07:14;18.90;;;4.07;;
83103;SDS011;72975;48.134;11.630;2024-01-30T14:09:42;13.15;;;4.30;;
83103;SDS011;72975;48.134;11.630;2024-01-30T14:12:21;9.02;;;3.65;;
83103;SDS011;72975;48.134;11.630;2024-01-30T14:14:50;9.73;;;3.47;;
83103;SDS011;72975;48.134;11.630;2024-01-30T14:17:19;8.75;;;3.60;;
83103;SDS011;72975;48.134;11.630;2024-01-30T14:20:06;14.93;;;3.67;;
83103;SDS011;72975;48.134;11.630;2024-01-30T14:22:37;11.63;;;4.32;;
83103;SDS011;72975;48.134;11.630;2024-01-30T14:25:07;9.32;;;3.55;;
83103;SDS011;72975;48.134;11.630;2024-01-30T14:27:35;10.55;;;3.95;;
83103;SDS011;72975;48.134;11.630;2024-01-30T14:30:03;11.05;;;3.90;;
83103;SDS011;72975;48.134;11.630;2024-01-30T14:32:31;7.03;;;3.33;;
83103;SDS011;72975;48.134;11.630;2024-01-30T14:34:59;14.27;;;4.78;;
83103;SDS011;72975;48.134;11.630;2024-01-30T14:37:30;17.55;;;5.75;;
83103;SDS011;72975;48.134;11.630;2024-01-30T14:39:58;10.80;;;5.07;;
83103;SDS011;72975;48.134;11.630;2024-01-30T14:42:33;12.73;;;4.15;;
83103;SDS011;72975;48.134;11.630;2024-01-30T14:45:03;14.93;;;5.47;;
83103;SDS011;72975;48.134;11.630;2024-01-30T14:47:35;14.27;;;4.57;;
83103;SDS011;72975;48.134;11.630;2024-01-30T14:50:04;11.80;;;3.92;;
83103;SDS011;72975;48.134;11.630;2024-01-30T14:52:35;15.90;;;4.88;;
83103;SDS011;72975;48.134;11.630;2024-01-30T14:55:07;12.27;;;4.93;;
83103;SDS011;72975;48.134;11.630;2024-01-30T14:57:37;9.68;;;5.25;;
83103;SDS011;72975;48.134;11.630;2024-01-30T15:00:08;12.15;;;4.40;;
83103;SDS011;72975;48.134;11.630;2024-01-30T15:02:37;10.68;;;4.32;;
83103;SDS011;72975;48.134;11.630;2024-01-30T15:05:05;10.73;;;4.72;;
83103;SDS011;72975;48.134;11.630;2024-01-30T15:07:33;13.32;;;4.47;;
83103;SDS011;72975;48.134;11.630;2024-01-30T15:10:06;13.52;;;4.10;;
83103;SDS011;72975;48.134;11.630;2024-01-30T15:12:38;15.20;;;4.43;;
83103;SDS011;72975;48.134;11.630;2024-01-30T15:15:07;18.25;;;4.22;;
83103;SDS011;72975;48.134;11.630;2024-01-30T15:17:36;11.73;;;4.05;;
83103;SDS011;72975;48.134;11.630;2024-01-30T15:22:38;11.15;;;3.85;;
83103;SDS011;72975;48.134;11.630;2024-01-30T15:25:09;11.73;;;3.97;;
83103;SDS011;72975;48.134;11.630;2024-01-30T15:27:44;12.15;;;3.90;;
83103;SDS011;72975;48.134;11.630;2024-01-30T15:30:18;8.18;;;3.17;;
83103;SDS011;72975;48.134;11.630;2024-01-30T15:32:48;9.95;;;3.17;;
83103;SDS011;72975;48.134;11.630;2024-01-30T15:35:16;12.80;;;3.92;;
83103;SDS011;72975;48.134;11.630;2024-01-30T15:37:43;18.42;;;6.13;;
83103;SDS011;72975;48.134;11.630;2024-01-30T15:40:20;9.27;;;3.25;;
83103;SDS011;72975;48.134;11.630;2024-01-30T15:45:54;42.28;;;8.75;;
83103;SDS011;72975;48.134;11.630;2024-01-30T15:48:55;15.25;;;6.05;;
83103;SDS011;72975;48.134;11.630;2024-01-30T15:51:38;26.35;;;6.15;;
83103;SDS011;72975;48.134;11.630;2024-01-30T15:54:27;29.23;;;7.00;;
83103;SDS011;72975;48.134;11.630;2024-01-30T15:56:55;18.20;;;6.57;;
83103;SDS011;72975;48.134;11.630;2024-01-30T15:59:29;23.40;;;7.68;;
83103;SDS011;72975;48.134;11.630;2024-01-30T16:01:57;29.73;;;6.63;;
83103;SDS011;72975;48.134;11.630;2024-01-30T16:04:28;24.25;;;6.00;;
83103;SDS011;72975;48.134;11.630;2024-01-30T16:06:56;37.22;;;7.85;;
83103;SDS011;72975;48.134;11.630;2024-01-30T16:09:24;28.30;;;9.70;;
83103;SDS011;72975;48.134;11.630;2024-01-30T16:12:06;22.70;;;8.50;;
83103;SDS011;72975;48.134;11.630;2024-01-30T16:14:35;21.92;;;8.02;;
83103;SDS011;72975;48.134;11.630;2024-01-30T16:17:17;14.23;;;5.07;;
83103;SDS011;72975;48.134;11.630;2024-01-30T16:20:13;20.23;;;6.55;;
83103;SDS011;72975;48.134;11.630;2024-01-30T16:23:00;17.23;;;6.47;;
83103;SDS011;72975;48.134;11.630;2024-01-30T16:26:08;14.13;;;6.70;;
83103;SDS011;72975;48.134;11.630;2024-01-30T16:29:06;9.38;;;4.65;;
83103;SDS011;72975;48.134;11.630;2024-01-30T16:31:40;12.48;;;4.88;;
83103;SDS011;72975;48.134;11.630;2024-01-30T16:34:26;11.82;;;4.57;;
83103;SDS011;72975;48.134;11.630;2024-01-30T16:37:22;13.20;;;4.55;;
83103;SDS011;72975;48.134;11.630;2024-01-30T16:40:06;16.23;;;7.38;;
83103;SDS011;72975;48.134;11.630;2024-01-30T16:42:44;27.77;;;12.25;;
83103;SDS011;72975;48.134;11.630;2024-01-30T16:45:24;31.33;;;10.73;;
83103;SDS011;72975;48.134;11.630;2024-01-30T16:48:15;22.98;;;7.22;;
83103;SDS011;72975;48.134;11.630;2024-01-30T16:51:16;19.85;;;5.07;;
83103;SDS011;72975;48.134;11.630;2024-01-30T16:53:45;28.00;;;6.80;;
83103;SDS011;72975;48.134;11.630;2024-01-30T16:56:15;17.48;;;6.28;;
83103;SDS011;72975;48.134;11.630;2024-01-30T16:59:01;10.32;;;4.82;;
83103;SDS011;72975;48.134;11.630;2024-01-30T17:01:40;12.90;;;5.72;;
83103;SDS011;72975;48.134;11.630;2024-01-30T17:04:19;22.33;;;8.63;;
83103;SDS011;72975;48.134;11.630;2024-01-30T17:07:03;16.95;;;7.32;;
83103;SDS011;72975;48.134;11.630;2024-01-30T17:14:00;16.48;;;5.30;;
83103;SDS011;72975;48.134;11.630;2024-01-30T17:20:55;7.68;;;4.47;;
83103;SDS011;72975;48.134;11.630;2024-01-30T17:23:34;11.65;;;4.60;;
83103;SDS011;72975;48.134;11.630;2024-01-30T17:26:26;9.45;;;4.70;;
83103;SDS011;72975;48.134;11.630;2024-01-30T17:29:49;10.32;;;4.95;;
83103;SDS011;72975;48.134;11.630;2024-01-30T17:32:17;14.88;;;5.75;;
83103;SDS011;72975;48.134;11.630;2024-01-30T17:34:54;9.20;;;4.93;;
83103;SDS011;72975;48.134;11.630;2024-01-30T17:37:30;8.25;;;4.07;;
83103;SDS011;72975;48.134;11.630;2024-01-30T17:40:11;8.68;;;3.85;;
83103;SDS011;72975;48.134;11.630;2024-01-30T17:42:45;9.23;;;3.90;;
83103;SDS011;72975;48.134;11.630;2024-01-30T17:45:13;13.05;;;5.63;;
83103;SDS011;72975;48.134;11.630;2024-01-30T17:47:41;11.35;;;5.68;;
83103;SDS011;72975;48.134;11.630;2024-01-30T18:04:27;8.85;;;5.20;;
83103;SDS011;72975;48.134;11.630;2024-01-30T18:07:45;8.38;;;3.88;;
83103;SDS011;72975;48.134;11.630;2024-01-30T18:11:34;6.57;;;3.20;;
83103;SDS011;72975;48.134;11.630;2024-01-30T18:25:57;8.57;;;4.25;;
83103;SDS011;72975;48.134;11.630;2024-01-30T18:29:00;9.75;;;4.95;;
83103;SDS011;72975;48.134;11.630;2024-01-30T18:33:02;8.32;;;4.85;;
83103;SDS011;72975;48.134;11.630;2024-01-30T18:37:06;9.30;;;5.10;;
83103;SDS011;72975;48.134;11.630;2024-01-30T18:40:31;9.63;;;5.13;;
83103;SDS011;72975;48.134;11.630;2024-01-30T18:44:18;12.23;;;5.32;;
83103;SDS011;72975;48.134;11.630;2024-01-30T18:52:32;11.07;;;4.28;;
83103;SDS011;72975;48.134;11.630;2024-01-30T18:55:08;10.35;;;4.53;;
83103;SDS011;72975;48.134;11.630;2024-01-30T18:57:38;10.75;;;5.35;;
83103;SDS011;72975;48.134;11.630;2024-01-30T19:00:34;8.88;;;3.85;;
83103;SDS011;72975;48.134;11.630;2024-01-30T19:03:26;10.70;;;5.70;;
83103;SDS011;72975;48.134;11.630;2024-01-30T19:06:39;11.52;;;4.88;;
83103;SDS011;72975;48.134;11.630;2024-01-30T19:09:35;10.27;;;4.97;;
83103;SDS011;72975;48.134;11.630;2024-01-30T19:12:24;12.90;;;4.70;;
83103;SDS011;72975;48.134;11.630;2024-01-30T19:15:23;6.95;;;4.15;;
83103;SDS011;72975;48.134;11.630;2024-01-30T19:18:44;8.65;;;4.30;;
83103;SDS011;72975;48.134;11.630;2024-01-30T19:31:10;8.70;;;4.57;;
83103;SDS011;72975;48.134;11.630;2024-01-30T19:37:32;10.25;;;4.60;;
83103;SDS011;72975;48.134;11.630;2024-01-30T19:40:19;10.27;;;4.45;;
83103;SDS011;72975;48.134;11.630;2024-01-30T19:42:55;7.10;;;3.88;;
83103;SDS011;72975;48.134;11.630;2024-01-30T19:46:50;9.82;;;4.68;;
83103;SDS011;72975;48.134;11.630;2024-01-30T20:03:41;11.98;;;5.90;;
83103;SDS011;72975;48.134;11.630;2024-01-30T20:06:27;15.45;;;5.30;;
83103;SDS011;72975;48.134;11.630;2024-01-30T20:12:25;9.25;;;4.63;;
83103;SDS011;72975;48.134;11.630;2024-01-30T20:15:21;11.07;;;5.07;;
83103;SDS011;72975;48.134;11.630;2024-01-30T20:18:39;11.68;;;5.63;;
83103;SDS011;72975;48.134;11.630;2024-01-30T20:21:06;10.38;;;5.47;;
83103;SDS011;72975;48.134;11.630;2024-01-30T20:23:34;12.73;;;5.82;;